createdAt,value
2019-03-12T00:00:18.254Z,90.00
2019-03-12T00:02:46.528Z,90.00
2019-03-12T00:05:14.753Z,89.80
2019-03-12T00:07:42.979Z,90.00
2019-03-12T00:10:11.317Z,90.20
2019-03-12T00:12:39.544Z,90.20
2019-03-12T00:15:07.877Z,90.20
2019-03-12T00:17:36.145Z,90.10
2019-03-12T00:20:05.948Z,90.20
2019-03-12T00:22:34.159Z,90.30
2019-03-12T00:25:02.374Z,90.10
2019-03-12T00:27:30.625Z,90.50
2019-03-12T00:29:58.843Z,90.80
2019-03-12T00:32:27.070Z,90.30
2019-03-12T00:34:55.321Z,90.80
2019-03-12T00:37:23.546Z,90.40
2019-03-12T00:39:51.820Z,90.50
2019-03-12T00:42:20.035Z,90.80
2019-03-12T00:44:48.258Z,90.80
2019-03-12T00:47:16.516Z,90.80
2019-03-12T00:49:44.736Z,91.70
2019-03-12T00:52:12.955Z,90.80
2019-03-12T00:54:41.216Z,90.90
2019-03-12T00:57:09.435Z,91.00
2019-03-12T00:59:37.696Z,91.10
2019-03-12T01:02:05.916Z,91.30
2019-03-12T01:04:34.381Z,91.40
2019-03-12T01:07:02.617Z,91.60
2019-03-12T01:09:30.829Z,91.70
2019-03-12T01:11:59.102Z,91.90
2019-03-12T01:14:27.324Z,92.00
2019-03-12T01:16:55.581Z,92.00
2019-03-12T01:19:23.820Z,92.10
2019-03-12T01:21:52.028Z,92.00
2019-03-12T01:24:20.290Z,92.10
2019-03-12T01:26:48.513Z,92.10
2019-03-12T01:29:16.726Z,92.10
2019-03-12T01:31:44.981Z,92.40
2019-03-12T01:34:13.207Z,92.30
2019-03-12T01:36:41.437Z,92.50
2019-03-12T01:39:09.672Z,92.50
2019-03-12T01:41:37.911Z,92.60
2019-03-12T01:44:06.150Z,92.60
2019-03-12T01:46:34.368Z,92.80
2019-03-12T01:49:02.619Z,92.70
2019-03-12T01:51:31.287Z,92.80
2019-03-12T01:53:59.765Z,92.90
2019-03-12T01:56:28.003Z,93.00
2019-03-12T01:58:56.254Z,93.10
2019-03-12T02:01:24.477Z,93.20
2019-03-12T02:03:52.742Z,93.30
2019-03-12T02:06:20.978Z,93.40
2019-03-12T02:08:49.193Z,93.40
2019-03-12T02:11:17.433Z,93.40
2019-03-12T02:13:45.648Z,93.20
2019-03-12T02:16:13.875Z,93.30
2019-03-12T02:18:42.123Z,93.30
2019-03-12T02:21:10.368Z,93.40
2019-03-12T02:23:38.611Z,93.50
2019-03-12T02:26:06.842Z,93.60
2019-03-12T02:28:35.086Z,93.50
2019-03-12T02:31:03.323Z,93.30
2019-03-12T02:33:31.581Z,93.50
2019-03-12T02:35:59.805Z,93.60
2019-03-12T02:38:28.023Z,93.50
2019-03-12T02:40:56.302Z,93.60
2019-03-12T02:43:24.511Z,93.90
2019-03-12T02:45:52.732Z,93.60
2019-03-12T02:48:21.119Z,93.50
2019-03-12T02:50:49.401Z,93.50
2019-03-12T02:53:17.622Z,93.60
2019-03-12T02:55:45.981Z,93.40
2019-03-12T02:58:14.284Z,93.50
2019-03-12T03:00:42.512Z,93.60
2019-03-12T03:03:10.739Z,93.60
2019-03-12T03:05:40.688Z,93.50
2019-03-12T03:08:10.580Z,93.50
2019-03-12T03:10:38.816Z,93.30
2019-03-12T03:13:07.072Z,93.50
2019-03-12T03:15:37.090Z,93.50
2019-03-12T03:18:05.312Z,93.60
2019-03-12T03:20:33.562Z,93.70
2019-03-12T03:23:01.803Z,93.70
2019-03-12T03:25:30.048Z,93.90
2019-03-12T03:27:58.300Z,94.00
2019-03-12T03:30:26.536Z,94.20
2019-03-12T03:32:54.860Z,94.20
2019-03-12T03:35:23.084Z,94.20
2019-03-12T03:37:51.296Z,94.30
2019-03-12T03:40:22.301Z,94.30
2019-03-12T03:42:50.607Z,94.30
2019-03-12T03:45:18.821Z,94.30
2019-03-12T03:47:47.223Z,94.50
2019-03-12T03:50:16.818Z,94.50
2019-03-12T03:52:45.159Z,94.40
2019-03-12T03:55:15.437Z,94.80
2019-03-12T03:57:43.649Z,94.80
2019-03-12T04:00:14.834Z,94.70
2019-03-12T04:02:43.066Z,94.80
2019-03-12T04:05:11.270Z,95.00
2019-03-12T04:07:39.539Z,94.90
2019-03-12T04:10:11.889Z,95.10
2019-03-12T04:12:40.115Z,95.00
2019-03-12T04:15:13.784Z,95.00
2019-03-12T04:17:42.010Z,95.20
2019-03-12T04:20:17.935Z,95.40
2019-03-12T04:22:46.232Z,95.80
2019-03-12T04:25:14.488Z,95.90
2019-03-12T04:27:42.710Z,95.90
2019-03-12T04:30:17.843Z,95.80
2019-03-12T04:32:46.076Z,95.70
2019-03-12T04:35:29.229Z,95.70
2019-03-12T04:37:57.440Z,95.80
2019-03-12T04:40:25.670Z,96.00
2019-03-12T04:42:53.940Z,96.00
2019-03-12T04:45:22.156Z,96.10
2019-03-12T04:47:50.391Z,96.40
2019-03-12T04:50:18.657Z,96.50
2019-03-12T04:52:46.883Z,96.50
2019-03-12T04:55:16.031Z,96.50
2019-03-12T04:57:44.275Z,96.60
2019-03-12T05:00:15.312Z,96.70
2019-03-12T05:02:43.550Z,96.70
2019-03-12T05:05:11.768Z,96.60
2019-03-12T05:07:40.002Z,96.70
2019-03-12T05:10:11.210Z,96.60
2019-03-12T05:12:39.432Z,96.60
2019-03-12T05:15:13.088Z,96.50
2019-03-12T05:17:41.379Z,96.60
2019-03-12T05:20:11.545Z,96.60
2019-03-12T05:22:39.804Z,96.60
2019-03-12T05:25:14.792Z,96.70
2019-03-12T05:27:43.108Z,96.90
2019-03-12T05:30:18.325Z,96.90
2019-03-12T05:32:46.618Z,96.90
2019-03-12T05:35:14.953Z,96.80
2019-03-12T05:37:43.181Z,96.80
2019-03-12T05:40:15.860Z,96.80
2019-03-12T05:42:44.074Z,96.80
2019-03-12T05:45:13.739Z,96.80
2019-03-12T05:47:41.990Z,96.80
2019-03-12T05:50:12.166Z,96.90
2019-03-12T05:52:40.425Z,97.20
2019-03-12T05:55:09.978Z,96.90
2019-03-12T05:57:38.229Z,96.90
2019-03-12T06:00:12.370Z,97.20
2019-03-12T06:02:40.638Z,97.20
2019-03-12T06:05:08.864Z,97.30
2019-03-12T06:07:37.098Z,97.20
2019-03-12T06:10:11.496Z,97.30
2019-03-12T06:12:39.720Z,97.50
2019-03-12T06:15:10.217Z,97.50
2019-03-12T06:17:38.447Z,97.50
2019-03-12T06:20:09.918Z,97.50
2019-03-12T06:22:38.174Z,97.50
2019-03-12T06:25:06.477Z,97.50
2019-03-12T06:27:34.718Z,97.40
2019-03-12T06:30:02.988Z,97.40
2019-03-12T06:32:41.656Z,97.40
2019-03-12T06:35:11.371Z,97.30
2019-03-12T06:37:49.987Z,97.20
2019-03-12T06:40:19.859Z,97.40
2019-03-12T06:42:52.452Z,97.40
2019-03-12T06:45:25.045Z,97.40
2019-03-12T06:47:54.928Z,97.40
2019-03-12T06:50:24.843Z,97.40
2019-03-12T06:52:57.664Z,97.20
2019-03-12T06:55:30.581Z,97.10
2019-03-12T06:58:25.035Z,97.10
2019-03-12T07:00:54.915Z,97.40
2019-03-12T07:03:41.020Z,96.90
2019-03-12T07:06:22.933Z,96.90
2019-03-12T07:09:01.806Z,96.90
2019-03-12T07:11:41.034Z,96.80
2019-03-12T07:14:13.823Z,96.80
2019-03-12T07:16:58.792Z,96.40
2019-03-12T07:19:40.550Z,96.00
2019-03-12T07:22:10.438Z,95.60
2019-03-12T07:24:40.282Z,95.40
2019-03-12T07:27:13.191Z,94.50
2019-03-12T07:29:43.047Z,94.20
2019-03-12T07:32:32.365Z,94.10
2019-03-12T07:35:02.236Z,93.50
2019-03-12T07:37:47.440Z,93.10
2019-03-12T07:40:19.994Z,93.40
2019-03-12T07:43:07.264Z,93.30
2019-03-12T07:45:43.221Z,92.90
2019-03-12T07:48:16.053Z,92.60
2019-03-12T07:51:00.975Z,91.90
2019-03-12T07:53:33.818Z,91.00
2019-03-12T07:56:03.744Z,91.20
2019-03-12T07:58:48.913Z,91.20
2019-03-12T08:01:21.654Z,90.30
2019-03-12T08:04:00.408Z,90.10
2019-03-12T08:06:48.104Z,88.70
2019-03-12T08:09:18.004Z,90.20
2019-03-12T08:11:47.852Z,87.60
2019-03-12T08:14:29.709Z,86.40
2019-03-12T08:17:05.275Z,86.10
2019-03-12T08:19:51.520Z,85.10
2019-03-12T08:22:36.704Z,84.60
2019-03-12T08:25:16.924Z,84.70
2019-03-12T08:27:52.499Z,84.70
2019-03-12T08:30:40.724Z,84.80
2019-03-12T08:33:22.668Z,83.60
2019-03-12T08:35:52.538Z,81.50
2019-03-12T08:38:28.444Z,79.70
2019-03-12T08:41:14.788Z,79.30
2019-03-12T08:44:03.187Z,77.50
2019-03-12T08:46:45.325Z,77.60
2019-03-12T08:49:18.061Z,78.90
2019-03-12T08:51:47.921Z,75.90
2019-03-12T08:54:26.808Z,74.80
2019-03-12T08:56:56.683Z,74.60
2019-03-12T08:59:42.893Z,73.90
2019-03-12T09:02:12.770Z,74.60
2019-03-12T09:04:48.442Z,74.20
2019-03-12T09:07:18.319Z,69.00
2019-03-12T09:09:48.210Z,72.80
2019-03-12T09:12:34.662Z,70.20
2019-03-12T09:15:04.642Z,70.90
2019-03-12T09:17:46.523Z,72.80
2019-03-12T09:20:22.218Z,73.60
2019-03-12T09:23:08.402Z,73.00
2019-03-12T09:25:41.171Z,68.40
2019-03-12T09:28:17.074Z,70.00
2019-03-12T09:30:49.633Z,69.40
2019-03-12T09:33:22.348Z,69.50
2019-03-12T09:35:52.190Z,68.40
2019-03-12T09:38:22.041Z,68.70
2019-03-12T09:41:00.742Z,65.80
2019-03-12T09:43:36.320Z,65.60
2019-03-12T09:46:06.213Z,65.80
2019-03-12T09:48:42.136Z,67.30
2019-03-12T09:51:12.065Z,67.30
2019-03-12T09:53:41.937Z,63.60
2019-03-12T09:56:20.844Z,62.70
2019-03-12T09:58:59.427Z,63.70
2019-03-12T10:01:29.313Z,62.60
2019-03-12T10:03:59.233Z,62.50
2019-03-12T10:06:32.058Z,60.80
2019-03-12T10:09:01.961Z,58.30
2019-03-12T10:11:35.118Z,60.40
2019-03-12T10:14:07.706Z,61.10
2019-03-12T10:16:40.282Z,59.70
2019-03-12T10:21:48.353Z,57.90
2019-03-12T10:24:30.189Z,58.00
2019-03-12T10:27:06.008Z,57.50
2019-03-12T10:29:35.883Z,56.30
2019-03-12T10:32:21.078Z,55.70
2019-03-12T10:34:56.690Z,54.90
2019-03-12T10:37:26.594Z,52.80
2019-03-12T10:40:09.892Z,53.90
2019-03-12T10:43:00.432Z,47.90
2019-03-12T10:45:30.346Z,50.00
2019-03-12T10:48:00.214Z,52.20
2019-03-12T10:50:28.514Z,51.80
2019-03-12T10:52:56.792Z,51.30
2019-03-12T10:55:25.018Z,47.50
2019-03-12T10:57:53.282Z,42.30
2019-03-12T11:00:21.528Z,45.10
2019-03-12T11:02:49.800Z,42.60
2019-03-12T11:05:21.484Z,40.80
2019-03-12T11:07:49.674Z,40.20
2019-03-12T11:10:18.971Z,39.60
2019-03-12T11:12:47.274Z,40.80
2019-03-12T11:15:15.875Z,36.80
2019-03-12T11:17:49.362Z,40.20
2019-03-12T11:20:25.284Z,37.20
2019-03-12T11:22:53.581Z,38.20
2019-03-12T11:25:27.088Z,33.80
2019-03-12T11:27:51.956Z,33.50
2019-03-12T11:30:20.525Z,33.80
2019-03-12T11:32:53.835Z,33.00
2019-03-12T11:35:22.093Z,34.50
2019-03-12T11:37:50.363Z,33.40
2019-03-12T11:40:20.513Z,30.30
2019-03-12T11:42:48.802Z,32.90
2019-03-12T11:45:19.599Z,29.20
2019-03-12T11:47:46.975Z,28.30
2019-03-12T11:50:18.031Z,25.20
2019-03-12T11:52:54.852Z,27.60
2019-03-12T11:55:16.305Z,27.70
2019-03-12T11:57:44.546Z,27.20
2019-03-12T12:00:31.893Z,25.90
2019-03-12T12:03:00.793Z,24.10
2019-03-12T12:05:29.216Z,24.00
2019-03-12T12:07:57.479Z,23.10
2019-03-12T12:10:25.704Z,23.00
2019-03-12T12:12:53.954Z,23.80
2019-03-12T12:15:22.197Z,24.50
2019-03-12T12:17:50.438Z,23.60
2019-03-12T12:20:28.921Z,24.40
2019-03-12T12:22:48.685Z,24.80
2019-03-12T12:25:20.273Z,24.50
2019-03-12T12:27:48.510Z,24.00
2019-03-12T12:30:22.143Z,25.50
2019-03-12T12:32:50.402Z,24.00
2019-03-12T12:35:18.642Z,23.50
2019-03-12T12:37:46.887Z,24.00
2019-03-12T12:40:20.116Z,24.80
2019-03-12T12:42:48.333Z,26.20
2019-03-12T12:45:25.614Z,25.40
2019-03-12T12:47:53.830Z,24.70
2019-03-12T12:50:22.069Z,25.90
2019-03-12T12:52:50.334Z,27.70
2019-03-12T12:55:18.578Z,27.60
2019-03-12T12:57:46.889Z,27.30
2019-03-12T13:00:20.328Z,28.20
2019-03-12T13:02:48.606Z,26.90
2019-03-12T13:05:16.828Z,26.20
2019-03-12T13:07:45.098Z,23.80
2019-03-12T13:10:19.498Z,23.80
2019-03-12T13:12:47.759Z,25.50
2019-03-12T13:15:16.106Z,25.20
2019-03-12T13:17:44.355Z,25.70
2019-03-12T13:20:12.589Z,26.10
2019-03-12T13:22:40.846Z,25.80
2019-03-12T13:25:16.253Z,25.30
2019-03-12T13:27:44.496Z,26.90
2019-03-12T13:30:15.646Z,27.40
2019-03-12T13:32:43.883Z,26.60
2019-03-12T13:35:14.444Z,28.70
2019-03-12T13:37:42.692Z,28.00
2019-03-12T13:40:23.202Z,28.50
2019-03-12T13:42:51.452Z,30.10
2019-03-12T13:45:27.304Z,30.80
2019-03-12T13:47:56.027Z,31.20
2019-03-12T13:50:24.444Z,32.00
2019-03-12T13:52:52.734Z,33.80
2019-03-12T13:55:20.990Z,33.40
2019-03-12T13:57:49.263Z,34.50
2019-03-12T14:00:25.547Z,34.60
2019-03-12T14:02:53.099Z,33.20
2019-03-12T14:05:21.322Z,33.60
2019-03-12T14:07:49.642Z,33.40
2019-03-12T14:10:28.096Z,35.00
2019-03-12T14:12:57.123Z,32.70
2019-03-12T14:15:30.598Z,30.10
2019-03-12T14:17:58.832Z,31.10
2019-03-12T14:20:47.254Z,32.60
2019-03-12T14:23:24.525Z,31.80
2019-03-12T14:25:52.768Z,31.50
2019-03-12T14:28:20.997Z,30.30
2019-03-12T14:30:49.260Z,31.20
2019-03-12T14:33:17.612Z,32.20
2019-03-12T14:35:51.606Z,34.10
2019-03-12T14:38:15.790Z,35.30
2019-03-12T14:40:44.051Z,35.40
2019-03-12T14:43:12.281Z,35.80
2019-03-12T14:45:43.149Z,32.70
2019-03-12T14:48:45.785Z,34.40
2019-03-12T14:51:36.763Z,35.20
2019-03-12T14:54:10.616Z,34.20
2019-03-12T14:56:38.842Z,30.90
2019-03-12T14:59:07.097Z,30.40
2019-03-12T15:01:35.319Z,31.00
2019-03-12T15:04:03.535Z,30.00
2019-03-12T15:06:31.792Z,28.70
2019-03-12T15:09:00.007Z,27.80
2019-03-12T15:11:28.236Z,27.30
2019-03-12T15:13:56.487Z,28.40
2019-03-12T15:16:24.734Z,28.40
2019-03-12T15:18:53.013Z,27.60
2019-03-12T15:21:21.283Z,28.70
2019-03-12T15:23:49.548Z,29.30
2019-03-12T15:26:17.823Z,29.80
2019-03-12T15:28:46.073Z,30.80
2019-03-12T15:31:14.319Z,31.80
2019-03-12T15:33:42.575Z,31.70
2019-03-12T15:36:10.822Z,32.30
2019-03-12T15:38:39.041Z,33.50
2019-03-12T15:41:07.311Z,33.00
2019-03-12T15:43:35.551Z,32.50
2019-03-12T15:46:03.789Z,33.20
2019-03-12T15:48:32.044Z,33.30
2019-03-12T15:51:00.720Z,32.50
2019-03-12T15:53:29.081Z,33.20
2019-03-12T15:55:57.342Z,33.80
2019-03-12T15:58:25.572Z,33.40
2019-03-12T16:00:53.810Z,34.10
2019-03-12T16:03:22.072Z,35.20
2019-03-12T16:05:50.295Z,35.40
2019-03-12T16:08:18.520Z,35.10
2019-03-12T16:10:57.312Z,35.80
2019-03-12T16:13:16.740Z,35.40
2019-03-12T16:15:44.978Z,36.10
2019-03-12T16:18:14.588Z,35.80
2019-03-12T16:20:43.048Z,37.30
2019-03-12T16:23:11.281Z,38.30
2019-03-12T16:25:39.537Z,37.60
2019-03-12T16:28:07.766Z,37.40
2019-03-12T16:30:36.014Z,38.40
2019-03-12T16:33:04.238Z,38.50
2019-03-12T16:35:32.566Z,38.70
2019-03-12T16:38:00.788Z,38.80
2019-03-12T16:40:29.718Z,39.20
2019-03-12T16:42:57.943Z,38.90
2019-03-12T16:45:26.172Z,39.60
2019-03-12T16:47:54.413Z,40.00
2019-03-12T16:50:22.640Z,40.00
2019-03-12T16:52:50.918Z,40.40
2019-03-12T16:55:19.612Z,40.30
2019-03-12T16:57:47.835Z,40.90
2019-03-12T17:00:20.102Z,41.10
2019-03-12T17:02:48.348Z,41.50
2019-03-12T17:05:16.651Z,41.70
2019-03-12T17:07:44.894Z,42.30
2019-03-12T17:10:20.874Z,41.80
2019-03-12T17:12:49.135Z,41.80
2019-03-12T17:15:25.703Z,42.60
2019-03-12T17:17:53.950Z,42.60
2019-03-12T17:20:22.166Z,42.90
2019-03-12T17:22:50.435Z,43.40
2019-03-12T17:25:18.657Z,42.30
2019-03-12T17:27:46.875Z,43.00
2019-03-12T17:30:22.285Z,43.50
2019-03-12T17:32:50.556Z,43.30
2019-03-12T17:35:35.733Z,43.60
2019-03-12T17:38:03.999Z,44.00
2019-03-12T17:40:32.262Z,43.10
2019-03-12T17:43:00.491Z,42.90
2019-03-12T17:45:28.708Z,44.00
2019-03-12T17:47:56.960Z,43.40
2019-03-12T17:50:25.192Z,43.50
2019-03-12T17:52:53.427Z,43.60
2019-03-12T17:55:21.646Z,43.90
2019-03-12T17:57:50.961Z,43.50
2019-03-12T18:00:28.908Z,44.00
2019-03-12T18:02:57.204Z,43.90
2019-03-12T18:05:25.411Z,44.50
2019-03-12T18:07:53.652Z,43.70
2019-03-12T18:10:21.898Z,44.50
2019-03-12T18:12:50.142Z,43.60
2019-03-12T18:15:20.192Z,44.30
2019-03-12T18:18:07.864Z,43.70
2019-03-12T18:20:36.087Z,43.60
2019-03-12T18:23:04.358Z,44.00
2019-03-12T18:25:38.009Z,43.80
2019-03-12T18:28:08.289Z,44.20
2019-03-12T18:30:36.526Z,44.20
2019-03-12T18:33:04.844Z,45.10
2019-03-12T18:35:33.064Z,45.10
2019-03-12T18:38:01.306Z,45.80
2019-03-12T18:40:29.799Z,45.30
2019-03-12T18:42:58.039Z,45.80
2019-03-12T18:45:31.522Z,46.10
2019-03-12T18:47:59.755Z,45.70
2019-03-12T18:50:27.985Z,45.80
2019-03-12T18:52:56.208Z,46.30
2019-03-12T18:55:33.679Z,45.80
2019-03-12T18:58:02.579Z,45.70
2019-03-12T19:00:31.467Z,45.10
2019-03-12T19:02:59.733Z,45.20
2019-03-12T19:05:28.455Z,45.00
2019-03-12T19:07:56.775Z,44.70
2019-03-12T19:10:25.006Z,44.00
2019-03-12T19:12:53.246Z,44.30
2019-03-12T19:15:21.497Z,44.10
2019-03-12T19:17:49.740Z,43.40
2019-03-12T19:20:18.735Z,43.00
2019-03-12T19:22:46.962Z,41.80
2019-03-12T19:25:27.584Z,41.90
2019-03-12T19:28:00.095Z,41.30
2019-03-12T19:30:25.782Z,41.70
2019-03-12T19:32:58.434Z,41.10
2019-03-12T19:35:30.767Z,41.80
2019-03-12T19:38:00.060Z,41.80
2019-03-12T19:40:34.306Z,41.50
2019-03-12T19:43:02.523Z,41.40
2019-03-12T19:45:30.770Z,40.60
2019-03-12T19:47:58.998Z,41.40
2019-03-12T19:50:27.236Z,40.60
2019-03-12T19:52:55.482Z,41.10
2019-03-12T19:55:35.768Z,40.40
2019-03-12T19:58:03.983Z,41.70
2019-03-12T20:00:32.246Z,41.00
2019-03-12T20:03:10.084Z,41.60
2019-03-12T20:05:30.473Z,42.30
2019-03-12T20:07:58.733Z,42.40
2019-03-12T20:11:03.874Z,41.80
2019-03-12T20:14:09.680Z,42.10
2019-03-12T20:16:49.550Z,42.30
2019-03-12T20:19:49.995Z,42.20
2019-03-12T20:22:54.621Z,43.30
2019-03-12T20:25:44.166Z,42.50
2019-03-12T20:28:32.262Z,42.50
2019-03-12T20:31:26.560Z,41.10
2019-03-12T20:34:26.763Z,42.00
2019-03-12T20:37:27.815Z,42.20
2019-03-12T20:40:15.795Z,41.50
2019-03-12T20:42:50.053Z,41.40
2019-03-12T20:45:29.880Z,42.00
2019-03-12T20:48:24.017Z,41.00
2019-03-12T20:51:15.118Z,41.70
2019-03-12T20:54:20.016Z,40.90
2019-03-12T20:57:20.593Z,40.80
2019-03-12T21:00:25.281Z,40.20
2019-03-12T21:03:19.662Z,40.70
2019-03-12T21:06:10.784Z,41.00
2019-03-12T21:08:51.079Z,40.90
2019-03-12T21:11:22.589Z,39.80
2019-03-12T21:14:09.125Z,39.30
2019-03-12T21:17:09.623Z,40.20
2019-03-12T21:20:08.765Z,39.90
2019-03-12T21:22:43.049Z,39.60
2019-03-12T21:25:33.032Z,39.20
2019-03-12T21:28:21.323Z,38.30
2019-03-12T21:30:49.564Z,38.20
2019-03-12T21:33:17.830Z,38.70
2019-03-12T21:35:46.070Z,38.00
2019-03-12T21:38:14.313Z,38.40
2019-03-12T21:40:42.559Z,37.30
2019-03-12T21:43:10.791Z,37.60
2019-03-12T21:45:39.043Z,37.80
2019-03-12T21:48:07.708Z,37.90
2019-03-12T21:50:35.978Z,38.40
2019-03-12T21:53:04.228Z,38.80
2019-03-12T21:55:32.453Z,38.40
2019-03-12T21:58:00.694Z,39.10
2019-03-12T22:00:28.974Z,38.10
2019-03-12T22:02:57.196Z,37.30
2019-03-12T22:05:25.438Z,38.20
2019-03-12T22:07:53.692Z,37.70
2019-03-12T22:10:21.908Z,38.00
2019-03-12T22:12:50.172Z,38.00
2019-03-12T22:15:18.383Z,37.80
2019-03-12T22:17:46.640Z,37.40
2019-03-12T22:20:15.045Z,38.20
2019-03-12T22:22:44.933Z,38.10
2019-03-12T22:25:13.319Z,38.60
2019-03-12T22:27:41.563Z,38.10
2019-03-12T22:30:15.757Z,38.50
2019-03-12T22:32:44.016Z,38.30
2019-03-12T22:35:12.247Z,37.50
2019-03-12T22:37:40.454Z,37.70
2019-03-12T22:40:13.763Z,38.30
2019-03-12T22:42:41.993Z,37.90
2019-03-12T22:45:11.185Z,38.00
2019-03-12T22:47:39.500Z,38.20
2019-03-12T22:50:10.800Z,37.20
2019-03-12T22:52:39.131Z,37.20
2019-03-12T22:55:09.213Z,37.20
2019-03-12T22:57:37.431Z,37.40
2019-03-12T23:00:11.937Z,37.90
2019-03-12T23:02:40.164Z,38.50
2019-03-12T23:05:09.932Z,38.20
2019-03-12T23:07:38.176Z,38.40
2019-03-12T23:10:13.593Z,39.10
2019-03-12T23:12:41.944Z,39.10
2019-03-12T23:15:15.350Z,39.20
2019-03-12T23:17:43.585Z,39.20
2019-03-12T23:20:14.600Z,39.10
2019-03-12T23:22:42.841Z,39.90
2019-03-12T23:25:11.089Z,41.10
2019-03-12T23:27:39.334Z,40.70
2019-03-12T23:30:16.625Z,40.50
2019-03-12T23:32:44.862Z,41.20
2019-03-12T23:35:13.145Z,43.00
2019-03-12T23:37:41.352Z,44.50
2019-03-12T23:40:14.957Z,46.70
2019-03-12T23:42:43.201Z,48.20
2019-03-12T23:45:12.076Z,53.40
2019-03-12T23:47:40.353Z,55.20
2019-03-12T23:50:10.388Z,57.60
2019-03-12T23:52:38.606Z,58.20
2019-03-12T23:55:08.682Z,59.30
2019-03-12T23:57:36.914Z,60.80
